North Salem, Missouri
Current Conditions -  °F | °C
As of 7:55 AM on Wednesday 22 Oct 2014 (Local Time) from KIRK Reporting Station
Clear Clear  
Wind Chill: 35°   Ceiling: Unl
Heat Index: 40°   Visibility: 9mi
Dew Point: 39°   Wind: 7mph
Humidity: 97%   Direction: 120°ESE
Pressure: 30.28"   Gusts: NA
Location:  40.0421°N, 92.9315°W
Report Text: KIRK 221255Z AUTO 12006KT 9SM CLR 04/04 A3028 RMK AO2 SLP261 T00440039
Loading
Personal Weather Stations






























Interactive Weather Map
Tropical Storm Tracking
New forecast layout! Learn more

10-Day Weather Forecast

Advertisements
Track Severe Weather on mobile